createdAt,value
2016-11-14T00:00:36.932Z,734.61
2016-11-14T00:01:36.911Z,734.59
2016-11-14T00:02:36.883Z,734.56
2016-11-14T00:03:36.872Z,734.56
2016-11-14T00:04:36.845Z,734.64
2016-11-14T00:05:37.025Z,734.61
2016-11-14T00:06:36.811Z,734.65
2016-11-14T00:07:36.785Z,734.6
2016-11-14T00:08:36.771Z,734.61
2016-11-14T00:09:36.750Z,734.64
2016-11-14T00:10:36.724Z,734.62
2016-11-14T00:11:36.701Z,734.6
2016-11-14T00:12:36.687Z,734.56
2016-11-14T00:13:36.658Z,734.6
2016-11-14T00:14:36.644Z,734.59
2016-11-14T00:15:36.616Z,734.61
2016-11-14T00:16:36.601Z,734.65
2016-11-14T00:17:36.579Z,734.54
2016-11-14T00:18:36.550Z,734.58
2016-11-14T00:19:36.529Z,734.63
2016-11-14T00:20:36.507Z,734.61
2016-11-14T00:21:36.491Z,734.61
2016-11-14T00:22:36.469Z,734.63
2016-11-14T00:23:36.441Z,734.61
2016-11-14T00:24:36.419Z,734.6
2016-11-14T00:25:36.403Z,734.61
2016-11-14T00:26:36.381Z,734.6
2016-11-14T00:27:36.353Z,734.63
2016-11-14T00:28:36.337Z,734.62
2016-11-14T00:29:36.308Z,734.69
2016-11-14T00:30:36.284Z,734.64
2016-11-14T00:31:36.262Z,734.65
2016-11-14T00:32:36.242Z,734.63
2016-11-14T00:33:36.218Z,734.64
2016-11-14T00:34:36.195Z,734.61
2016-11-14T00:35:36.172Z,734.66
2016-11-14T00:36:36.157Z,734.65
2016-11-14T00:37:36.128Z,734.67
2016-11-14T00:38:36.115Z,734.69
2016-11-14T00:39:36.091Z,734.73
2016-11-14T00:40:36.062Z,734.69
2016-11-14T00:41:36.047Z,734.72
2016-11-14T00:42:36.018Z,734.74
2016-11-14T00:43:35.995Z,734.71
2016-11-14T00:44:35.980Z,734.75
2016-11-14T00:45:35.952Z,734.69
2016-11-14T00:46:35.936Z,734.72
2016-11-14T00:47:35.908Z,734.69
2016-11-14T00:48:35.893Z,734.63
2016-11-14T00:49:35.872Z,734.67
2016-11-14T00:50:36.051Z,734.72
2016-11-14T00:51:35.827Z,734.71
2016-11-14T00:52:35.800Z,734.72
2016-11-14T00:53:35.785Z,734.72
2016-11-14T00:54:35.756Z,734.71
2016-11-14T00:55:35.741Z,734.71
2016-11-14T00:56:35.720Z,734.75
2016-11-14T00:57:35.698Z,734.73
2016-11-14T00:58:35.669Z,734.73
2016-11-14T00:59:35.650Z,734.69
2016-11-14T01:00:35.635Z,734.69
2016-11-14T01:01:35.607Z,734.7
2016-11-14T01:02:35.585Z,734.69
2016-11-14T01:03:35.565Z,734.71
2016-11-14T01:04:35.545Z,734.72
2016-11-14T01:05:35.523Z,734.76
2016-11-14T01:06:35.510Z,734.77
2016-11-14T01:07:35.491Z,734.76
2016-11-14T01:08:35.470Z,734.78
2016-11-14T01:09:35.443Z,734.7
2016-11-14T01:10:35.424Z,734.75
2016-11-14T01:11:35.411Z,734.73
2016-11-14T01:12:35.390Z,734.73
2016-11-14T01:13:35.370Z,734.72
2016-11-14T01:14:35.343Z,734.73
2016-11-14T01:15:35.331Z,734.73
2016-11-14T01:16:35.306Z,734.7
2016-11-14T01:18:35.267Z,734.71
2016-11-14T01:19:35.253Z,734.7
2016-11-14T01:20:35.234Z,734.71
2016-11-14T01:21:35.207Z,734.7
2016-11-14T01:22:35.195Z,734.69
2016-11-14T01:23:35.168Z,734.67
2016-11-14T01:24:35.150Z,734.68
2016-11-14T01:25:35.137Z,734.69
2016-11-14T01:26:35.109Z,734.69
2016-11-14T01:27:35.098Z,734.72
2016-11-14T01:28:35.079Z,734.69
2016-11-14T01:29:35.060Z,734.7
2016-11-14T01:30:35.040Z,734.69
2016-11-14T01:31:35.021Z,734.68
2016-11-14T01:32:34.994Z,734.72
2016-11-14T01:33:34.982Z,734.71
2016-11-14T01:34:34.955Z,734.71
2016-11-14T01:35:34.937Z,734.7
2016-11-14T01:36:34.924Z,734.72
2016-11-14T01:37:34.896Z,734.74
2016-11-14T01:38:34.883Z,734.73
2016-11-14T01:39:34.857Z,734.72
2016-11-14T01:40:34.836Z,734.69
2016-11-14T01:41:34.823Z,734.7
2016-11-14T01:42:34.804Z,734.68
2016-11-14T01:43:34.784Z,734.68
2016-11-14T01:44:34.764Z,734.64
2016-11-14T01:45:34.737Z,734.72
2016-11-14T01:46:34.717Z,734.75
2016-11-14T01:47:34.704Z,734.76
2016-11-14T01:48:34.676Z,734.74
2016-11-14T01:49:34.664Z,734.73
2016-11-14T01:50:34.638Z,734.74
2016-11-14T01:51:34.616Z,734.72
2016-11-14T01:52:34.602Z,734.72
2016-11-14T01:53:34.575Z,734.75
2016-11-14T01:54:34.562Z,734.74
2016-11-14T01:55:34.534Z,734.77
2016-11-14T01:56:34.513Z,734.74
2016-11-14T01:57:34.500Z,734.77
2016-11-14T01:58:34.479Z,734.69
2016-11-14T01:59:34.452Z,734.7
2016-11-14T02:00:34.438Z,734.69
2016-11-14T02:01:34.418Z,734.69
2016-11-14T02:02:34.398Z,734.75
2016-11-14T02:03:34.377Z,734.77
2016-11-14T02:04:34.357Z,734.75
2016-11-14T02:05:34.337Z,734.71
2016-11-14T02:06:34.317Z,734.75
2016-11-14T02:07:34.289Z,734.72
2016-11-14T02:08:34.275Z,734.77
2016-11-14T02:09:34.254Z,734.82
2016-11-14T02:10:34.233Z,734.8
2016-11-14T02:11:34.212Z,734.76
2016-11-14T02:12:34.185Z,734.76
2016-11-14T02:13:34.164Z,734.79
2016-11-14T02:14:34.148Z,734.84
2016-11-14T02:15:34.120Z,734.78
2016-11-14T02:16:34.106Z,734.75
2016-11-14T02:17:34.084Z,734.79
2016-11-14T02:18:34.055Z,734.78
2016-11-14T02:19:34.033Z,734.76
2016-11-14T02:20:34.012Z,734.79
2016-11-14T02:21:33.990Z,734.77
2016-11-14T02:22:33.975Z,734.78
2016-11-14T02:23:33.946Z,734.8
2016-11-14T02:24:33.932Z,734.79
2016-11-14T02:25:33.902Z,734.82
2016-11-14T02:26:33.888Z,734.82
2016-11-14T02:27:33.866Z,734.82
2016-11-14T02:28:33.838Z,734.82
2016-11-14T02:29:33.815Z,734.84
2016-11-14T02:30:33.801Z,734.85
2016-11-14T02:31:33.773Z,734.85
2016-11-14T02:32:33.757Z,734.85
2016-11-14T02:33:33.728Z,734.83
2016-11-14T02:34:33.808Z,734.84
2016-11-14T02:35:33.686Z,734.84
2016-11-14T02:36:33.663Z,734.82
2016-11-14T02:37:33.642Z,734.84
2016-11-14T02:38:33.627Z,734.84
2016-11-14T02:39:33.606Z,734.82
2016-11-14T02:40:33.576Z,734.83
2016-11-14T02:41:33.562Z,734.83
2016-11-14T02:42:33.540Z,734.83
2016-11-14T02:43:33.517Z,734.85
2016-11-14T02:44:33.496Z,734.82
2016-11-14T02:45:33.475Z,734.84
2016-11-14T02:46:33.453Z,734.84
2016-11-14T02:47:33.424Z,734.85
2016-11-14T02:48:33.403Z,734.88
2016-11-14T02:49:33.384Z,734.85
2016-11-14T02:50:33.361Z,734.82
2016-11-14T02:51:33.346Z,734.8
2016-11-14T02:52:33.326Z,734.85
2016-11-14T02:53:33.298Z,734.87
2016-11-14T02:54:33.282Z,734.84
2016-11-14T02:55:33.256Z,734.85
2016-11-14T02:56:33.240Z,734.87
2016-11-14T02:57:33.211Z,734.9
2016-11-14T02:58:33.191Z,734.85
2016-11-14T02:59:33.176Z,734.9
2016-11-14T03:00:33.148Z,734.86
2016-11-14T03:01:33.132Z,734.86
2016-11-14T03:02:33.111Z,734.87
2016-11-14T03:03:33.083Z,734.87
2016-11-14T03:04:33.063Z,734.9
2016-11-14T03:05:33.040Z,734.91
2016-11-14T03:06:33.018Z,734.85
2016-11-14T03:07:32.997Z,734.88
2016-11-14T03:08:32.977Z,734.87
2016-11-14T03:09:32.962Z,734.88
2016-11-14T03:10:32.941Z,734.87
2016-11-14T03:11:32.913Z,734.86
2016-11-14T03:12:32.899Z,734.89
2016-11-14T03:13:32.870Z,734.93
2016-11-14T03:14:32.856Z,734.9
2016-11-14T03:15:32.828Z,734.9
2016-11-14T03:16:32.807Z,734.89
2016-11-14T03:17:32.793Z,734.9
2016-11-14T03:18:32.765Z,734.95
2016-11-14T03:19:32.751Z,734.91
2016-11-14T03:20:32.722Z,734.91
2016-11-14T03:21:32.708Z,734.92
2016-11-14T03:22:32.687Z,734.88
2016-11-14T03:23:32.665Z,734.88
2016-11-14T03:24:32.637Z,734.93
2016-11-14T03:25:32.616Z,734.95
2016-11-14T03:26:32.595Z,734.94
2016-11-14T03:27:32.579Z,734.93
2016-11-14T03:28:32.551Z,734.99
2016-11-14T03:29:32.531Z,734.98
2016-11-14T03:30:32.508Z,735.02
2016-11-14T03:31:32.494Z,734.99
2016-11-14T03:32:32.473Z,735
2016-11-14T03:33:32.451Z,734.98
2016-11-14T03:34:32.428Z,735.02
2016-11-14T03:35:32.407Z,734.99
2016-11-14T03:36:32.386Z,735.05
2016-11-14T03:37:32.365Z,734.98
2016-11-14T03:38:32.343Z,735.01
2016-11-14T03:39:32.315Z,735.04
2016-11-14T03:40:32.292Z,735.02
2016-11-14T03:41:32.272Z,734.98
2016-11-14T03:42:32.256Z,734.95
2016-11-14T03:43:32.228Z,734.95
2016-11-14T03:44:32.205Z,734.99
2016-11-14T03:45:32.190Z,734.99
2016-11-14T03:46:32.163Z,734.95
2016-11-14T03:47:32.146Z,734.99
2016-11-14T03:48:32.124Z,735
2016-11-14T03:49:32.096Z,735
2016-11-14T03:50:32.079Z,735.06
2016-11-14T03:51:32.050Z,735.05
2016-11-14T03:52:32.028Z,735.02
2016-11-14T03:53:32.008Z,735.03
2016-11-14T03:54:31.984Z,735.07
2016-11-14T03:55:31.968Z,735.08
2016-11-14T03:56:31.939Z,735.07
2016-11-14T03:57:31.917Z,735.05
2016-11-14T03:58:31.895Z,735.07
2016-11-14T03:59:31.879Z,735.04
2016-11-14T04:00:31.856Z,735.1
2016-11-14T04:01:31.834Z,735.05
2016-11-14T04:02:31.804Z,735.07
2016-11-14T04:03:31.784Z,735.11
2016-11-14T04:04:31.760Z,735.09
2016-11-14T04:05:31.745Z,735.15
2016-11-14T04:06:31.717Z,735.14
2016-11-14T04:07:31.693Z,735.18
2016-11-14T04:08:31.678Z,735.14
2016-11-14T04:09:31.657Z,735.15
2016-11-14T04:10:31.628Z,735.19
2016-11-14T04:11:31.606Z,735.16
2016-11-14T04:12:31.583Z,735.18
2016-11-14T04:13:31.568Z,735.17
2016-11-14T04:14:31.540Z,735.14
2016-11-14T04:15:31.524Z,735.17
2016-11-14T04:16:31.503Z,735.17
2016-11-14T04:17:31.473Z,735.14
2016-11-14T04:18:31.457Z,735.13
2016-11-14T04:19:31.429Z,735.15
2016-11-14T04:20:31.414Z,735.13
2016-11-14T04:21:31.386Z,735.12
2016-11-14T04:22:31.362Z,735.17
2016-11-14T04:23:31.347Z,735.17
2016-11-14T04:24:31.325Z,735.18
2016-11-14T04:25:31.297Z,735.2
2016-11-14T04:26:31.274Z,735.17
2016-11-14T04:27:31.253Z,735.22
2016-11-14T04:28:31.230Z,735.2
2016-11-14T04:29:31.215Z,735.19
2016-11-14T04:30:31.192Z,735.2
2016-11-14T04:31:31.171Z,735.25
2016-11-14T04:32:31.171Z,735.18
2016-11-14T04:33:31.126Z,735.2
2016-11-14T04:34:31.097Z,735.15
2016-11-14T04:35:31.082Z,735.18
2016-11-14T04:36:31.059Z,735.25
2016-11-14T04:37:31.037Z,735.25
2016-11-14T04:38:31.009Z,735.16
2016-11-14T04:39:30.994Z,735.25
2016-11-14T04:40:30.965Z,735.26
2016-11-14T04:41:30.949Z,735.24
2016-11-14T04:42:30.928Z,735.25
2016-11-14T04:43:30.900Z,735.27
2016-11-14T04:44:30.876Z,735.28
2016-11-14T04:45:30.854Z,735.3
2016-11-14T04:46:30.840Z,735.29
2016-11-14T04:47:30.817Z,735.34
2016-11-14T04:48:30.796Z,735.31
2016-11-14T04:49:30.774Z,735.28
2016-11-14T04:50:30.752Z,735.26
2016-11-14T04:51:30.730Z,735.31
2016-11-14T04:52:30.708Z,735.33
2016-11-14T04:53:30.687Z,735.32
2016-11-14T04:54:30.658Z,735.31
2016-11-14T04:55:30.637Z,735.35
2016-11-14T04:56:30.613Z,735.31
2016-11-14T04:57:30.592Z,735.32
2016-11-14T04:58:30.577Z,735.37
2016-11-14T04:59:30.555Z,735.28
2016-11-14T05:00:30.527Z,735.3
2016-11-14T05:01:30.512Z,735.3
2016-11-14T05:02:30.489Z,735.29
2016-11-14T05:03:30.467Z,735.3
2016-11-14T05:04:30.446Z,735.33
2016-11-14T05:05:30.417Z,735.32
2016-11-14T05:06:30.394Z,735.33
2016-11-14T05:07:30.373Z,735.38
2016-11-14T05:08:30.357Z,735.37
2016-11-14T05:09:30.335Z,735.4
2016-11-14T05:10:30.313Z,735.34
2016-11-14T05:11:30.284Z,735.37
2016-11-14T05:12:30.270Z,735.32
2016-11-14T05:13:30.240Z,735.41
2016-11-14T05:14:30.225Z,735.37
2016-11-14T05:15:30.203Z,735.39
2016-11-14T05:16:30.176Z,735.38
2016-11-14T05:17:30.159Z,735.37
2016-11-14T05:18:30.131Z,735.36
2016-11-14T05:19:30.109Z,735.38
2016-11-14T05:20:30.093Z,735.38
2016-11-14T05:21:30.065Z,735.4
2016-11-14T05:22:30.049Z,735.42
2016-11-14T05:23:30.028Z,735.39
2016-11-14T05:24:29.998Z,735.41
2016-11-14T05:25:29.983Z,735.38
2016-11-14T05:26:29.957Z,735.39
2016-11-14T05:27:29.932Z,735.34
2016-11-14T05:28:29.917Z,735.41
2016-11-14T05:29:29.895Z,735.46
2016-11-14T05:30:29.867Z,735.39
2016-11-14T05:31:29.843Z,735.51
2016-11-14T05:32:29.822Z,735.43
2016-11-14T05:33:29.800Z,735.46
2016-11-14T05:34:29.785Z,735.48
2016-11-14T05:35:29.763Z,735.5
2016-11-14T05:36:29.734Z,735.5
2016-11-14T05:37:29.719Z,735.49
2016-11-14T05:38:29.691Z,735.52
2016-11-14T05:39:29.669Z,735.54
2016-11-14T05:40:29.649Z,735.52
2016-11-14T05:41:29.632Z,735.51
2016-11-14T05:42:29.609Z,735.55
2016-11-14T05:43:29.588Z,735.53
2016-11-14T05:44:29.566Z,735.53
2016-11-14T05:45:29.545Z,735.59
2016-11-14T05:46:29.516Z,735.57
2016-11-14T05:47:29.501Z,735.52
2016-11-14T05:48:29.479Z,735.53
2016-11-14T05:49:29.451Z,735.53
2016-11-14T05:50:29.435Z,735.59
2016-11-14T05:51:29.406Z,735.6
2016-11-14T05:52:29.384Z,735.59
2016-11-14T05:53:29.369Z,735.65
2016-11-14T05:54:29.347Z,735.67
2016-11-14T05:55:29.319Z,735.63
2016-11-14T05:56:29.304Z,735.69
2016-11-14T05:57:29.274Z,735.67
2016-11-14T05:58:29.260Z,735.67
2016-11-14T05:59:29.239Z,735.73
2016-11-14T06:00:29.209Z,735.71
2016-11-14T06:01:29.196Z,735.72
2016-11-14T06:02:29.168Z,735.71
2016-11-14T06:03:29.146Z,735.75
2016-11-14T06:04:29.123Z,735.76
2016-11-14T06:05:29.104Z,735.78
2016-11-14T06:06:29.088Z,735.8
2016-11-14T06:07:29.060Z,735.77
2016-11-14T06:08:29.044Z,735.79
2016-11-14T06:09:29.016Z,735.79
2016-11-14T06:10:29.001Z,735.81
2016-11-14T06:11:28.979Z,735.83
2016-11-14T06:12:28.951Z,735.85
2016-11-14T06:13:28.936Z,735.79
2016-11-14T06:14:28.909Z,735.84
2016-11-14T06:15:28.886Z,735.81
2016-11-14T06:16:28.871Z,735.76
2016-11-14T06:17:28.843Z,735.78
2016-11-14T06:18:28.822Z,735.81
2016-11-14T06:19:28.799Z,735.83
2016-11-14T06:20:28.785Z,735.86
2016-11-14T06:21:28.763Z,735.85
2016-11-14T06:22:28.733Z,735.85
2016-11-14T06:23:28.723Z,735.8
2016-11-14T06:24:28.698Z,735.85
2016-11-14T06:25:28.677Z,735.85
2016-11-14T06:26:28.648Z,735.84
2016-11-14T06:27:28.627Z,735.88
2016-11-14T06:28:28.611Z,735.86
2016-11-14T06:29:28.584Z,735.87
2016-11-14T06:30:28.568Z,735.93
2016-11-14T06:31:28.546Z,735.93
2016-11-14T06:32:28.525Z,735.97
2016-11-14T06:33:28.502Z,735.97
2016-11-14T06:34:28.481Z,735.97
2016-11-14T06:35:28.460Z,736.01
2016-11-14T06:36:28.431Z,736.05
2016-11-14T06:37:28.410Z,736
2016-11-14T06:38:28.395Z,736
2016-11-14T06:39:28.366Z,736.04
2016-11-14T06:40:28.347Z,736.05
2016-11-14T06:41:28.325Z,736.06
2016-11-14T06:42:28.303Z,736.11
2016-11-14T06:43:28.282Z,736.14
2016-11-14T06:44:28.259Z,736.18
2016-11-14T06:45:28.246Z,736.15
2016-11-14T06:46:28.219Z,736.15
2016-11-14T06:47:28.196Z,736.2
2016-11-14T06:48:28.175Z,736.18
2016-11-14T06:49:28.161Z,736.21
2016-11-14T06:50:28.133Z,736.24
2016-11-14T06:51:28.119Z,736.22
2016-11-14T06:52:28.096Z,736.2
2016-11-14T06:53:28.076Z,736.21
2016-11-14T06:54:28.054Z,736.27
2016-11-14T06:55:28.033Z,736.31
2016-11-14T06:56:28.012Z,736.27
2016-11-14T06:57:27.986Z,736.32
2016-11-14T06:58:27.964Z,736.29
2016-11-14T06:59:27.951Z,736.32
2016-11-14T07:00:27.929Z,736.34
2016-11-14T07:01:27.908Z,736.38
2016-11-14T07:02:27.882Z,736.37
2016-11-14T07:03:27.860Z,736.39
2016-11-14T07:04:27.840Z,736.36
2016-11-14T07:05:27.819Z,736.44
2016-11-14T07:06:27.798Z,736.42
2016-11-14T07:07:27.784Z,736.38
2016-11-14T07:08:27.764Z,736.44
2016-11-14T07:09:27.744Z,736.43
2016-11-14T07:10:27.722Z,736.48
2016-11-14T07:11:27.695Z,736.47
2016-11-14T07:12:27.682Z,736.46
2016-11-14T07:13:27.654Z,736.43
2016-11-14T07:14:27.641Z,736.39
2016-11-14T07:15:27.613Z,736.42
2016-11-14T07:16:27.594Z,736.48
2016-11-14T07:17:27.572Z,736.43
2016-11-14T07:18:27.558Z,736.45
2016-11-14T07:19:27.538Z,736.42
2016-11-14T07:20:27.518Z,736.47
2016-11-14T07:21:27.490Z,736.43
2016-11-14T07:22:27.476Z,736.48
2016-11-14T07:23:27.449Z,736.5
2016-11-14T07:24:27.435Z,736.52
2016-11-14T07:25:27.407Z,736.52
2016-11-14T07:26:27.394Z,736.53
2016-11-14T07:27:27.367Z,736.55
2016-11-14T07:28:27.353Z,736.54
2016-11-14T07:29:27.326Z,736.48
2016-11-14T07:30:27.313Z,736.48
2016-11-14T07:31:27.293Z,736.53
2016-11-14T07:32:27.272Z,736.53
2016-11-14T07:33:27.246Z,736.46
2016-11-14T07:34:27.232Z,736.45
2016-11-14T07:35:27.205Z,736.46
2016-11-14T07:36:27.193Z,736.44
2016-11-14T07:37:27.173Z,736.47
2016-11-14T07:38:27.146Z,736.46
2016-11-14T07:39:27.131Z,736.48
2016-11-14T07:40:27.111Z,736.45
2016-11-14T07:41:27.092Z,736.41
2016-11-14T07:42:27.071Z,736.45
2016-11-14T07:43:27.042Z,736.44
2016-11-14T07:44:27.022Z,736.46
2016-11-14T07:45:27.003Z,736.53
2016-11-14T07:46:26.983Z,736.48
2016-11-14T07:47:26.967Z,736.49
2016-11-14T07:48:26.939Z,736.53
2016-11-14T07:49:26.920Z,736.55
2016-11-14T07:50:26.897Z,736.47
2016-11-14T07:51:26.885Z,736.57
2016-11-14T07:52:26.865Z,736.56
2016-11-14T07:53:26.838Z,736.6
2016-11-14T07:54:26.826Z,736.58
2016-11-14T07:55:26.804Z,736.59
2016-11-14T07:56:26.784Z,736.6
2016-11-14T07:57:26.756Z,736.64
2016-11-14T07:58:26.744Z,736.62
2016-11-14T07:59:26.724Z,736.59
2016-11-14T08:00:26.705Z,736.67
2016-11-14T08:01:26.678Z,736.66
2016-11-14T08:02:26.657Z,736.67
2016-11-14T08:03:26.645Z,736.66
2016-11-14T08:04:26.621Z,736.67
2016-11-14T08:05:26.605Z,736.65
2016-11-14T08:06:26.579Z,736.61
2016-11-14T08:07:26.566Z,736.59
2016-11-14T08:08:26.539Z,736.62
2016-11-14T08:09:26.520Z,736.64
2016-11-14T08:10:26.500Z,736.64
2016-11-14T08:11:26.482Z,736.66
2016-11-14T08:12:26.469Z,736.7
2016-11-14T08:13:26.449Z,736.71
2016-11-14T08:14:26.431Z,736.72
2016-11-14T08:15:26.405Z,736.73
2016-11-14T08:16:26.393Z,736.72
2016-11-14T08:17:26.367Z,736.76
2016-11-14T08:18:26.349Z,736.72
2016-11-14T08:19:26.330Z,736.79
2016-11-14T08:20:26.319Z,736.76
2016-11-14T08:21:26.302Z,736.78
2016-11-14T08:22:26.283Z,736.82
2016-11-14T08:23:26.259Z,736.81
2016-11-14T08:24:26.248Z,736.81
2016-11-14T08:25:26.231Z,736.78
2016-11-14T08:26:26.207Z,736.84
2016-11-14T08:27:26.189Z,736.85
2016-11-14T08:28:26.171Z,736.9
2016-11-14T08:29:26.161Z,736.95
2016-11-14T08:30:26.142Z,736.92
2016-11-14T08:31:26.126Z,736.88
2016-11-14T08:32:26.102Z,736.93
2016-11-14T08:33:26.084Z,736.97
2016-11-14T08:34:26.066Z,736.97
2016-11-14T08:35:26.050Z,737.03
2016-11-14T08:36:26.039Z,737.04
2016-11-14T08:37:26.022Z,737.02
2016-11-14T08:38:26.004Z,737
2016-11-14T08:39:25.987Z,737.05
2016-11-14T08:40:25.963Z,737.04
2016-11-14T08:41:25.945Z,737.03
2016-11-14T08:42:25.935Z,737.02
2016-11-14T08:43:25.912Z,737.05
2016-11-14T08:44:25.894Z,737.06
2016-11-14T08:45:25.876Z,737.07
2016-11-14T08:46:25.867Z,737.07
2016-11-14T08:47:25.844Z,737.09
2016-11-14T08:48:25.836Z,737.1
2016-11-14T08:49:25.816Z,737.07
2016-11-14T08:50:25.800Z,737.08
2016-11-14T08:51:25.783Z,737.11
2016-11-14T08:52:25.759Z,737.12
2016-11-14T08:53:25.742Z,737.09
2016-11-14T08:54:25.731Z,737.12
2016-11-14T08:55:25.714Z,737.13
2016-11-14T08:56:25.689Z,737.15
2016-11-14T08:57:25.672Z,737.15
2016-11-14T08:58:25.656Z,737.11
2016-11-14T08:59:25.645Z,737.16
2016-11-14T09:00:25.621Z,737.16
2016-11-14T09:01:25.611Z,737.16
2016-11-14T09:02:25.601Z,737.2
2016-11-14T09:03:25.580Z,737.16
2016-11-14T09:04:25.562Z,737.19
2016-11-14T09:05:25.546Z,737.19
2016-11-14T09:06:25.523Z,737.22
2016-11-14T09:07:25.507Z,737.22
2016-11-14T09:08:25.497Z,737.22
2016-11-14T09:09:25.481Z,737.26
2016-11-14T09:10:25.458Z,737.25
2016-11-14T09:11:25.450Z,737.28
2016-11-14T09:12:25.434Z,737.28
2016-11-14T09:13:25.412Z,737.28
2016-11-14T09:14:25.394Z,737.33
2016-11-14T09:15:25.378Z,737.32
2016-11-14T09:16:25.363Z,737.34
2016-11-14T09:17:25.348Z,737.39
2016-11-14T09:18:25.331Z,737.44
2016-11-14T09:19:25.322Z,737.39
2016-11-14T09:20:25.300Z,737.43
2016-11-14T09:21:25.291Z,737.43
2016-11-14T09:22:25.268Z,737.46
2016-11-14T09:23:25.260Z,737.46
2016-11-14T09:24:25.239Z,737.49
2016-11-14T09:25:25.223Z,737.43
2016-11-14T09:26:25.215Z,737.51
2016-11-14T09:27:25.201Z,737.49
2016-11-14T09:28:25.186Z,737.49
2016-11-14T09:29:25.171Z,737.52
2016-11-14T09:30:25.157Z,737.51
2016-11-14T09:31:25.135Z,737.47
2016-11-14T09:32:25.120Z,737.51
2016-11-14T09:33:25.106Z,737.47
2016-11-14T09:34:25.100Z,737.48
2016-11-14T09:35:25.080Z,737.5
2016-11-14T09:36:25.074Z,737.58
2016-11-14T09:37:25.052Z,737.56
2016-11-14T09:38:25.038Z,737.56
2016-11-14T09:39:25.025Z,737.56
2016-11-14T09:40:25.016Z,737.58
2016-11-14T09:41:25.003Z,737.67
2016-11-14T09:42:24.990Z,737.65
2016-11-14T09:43:24.969Z,737.6
2016-11-14T09:44:24.963Z,737.6
2016-11-14T09:45:24.942Z,737.63
2016-11-14T09:46:24.937Z,737.63
2016-11-14T09:47:24.923Z,737.64
2016-11-14T09:48:24.911Z,737.62
2016-11-14T09:49:24.890Z,737.69
2016-11-14T09:50:24.878Z,737.66
2016-11-14T09:51:24.864Z,737.7
2016-11-14T09:52:24.862Z,737.71
2016-11-14T09:53:24.840Z,737.68
2016-11-14T09:54:24.834Z,737.7
2016-11-14T09:55:24.822Z,737.67
2016-11-14T09:56:24.802Z,737.69
2016-11-14T09:57:24.798Z,737.7
2016-11-14T09:58:24.785Z,737.7
2016-11-14T09:59:24.774Z,737.7
2016-11-14T10:00:24.762Z,737.75
2016-11-14T10:01:24.743Z,737.76
2016-11-14T10:02:24.730Z,737.73
2016-11-14T10:03:24.719Z,737.78
2016-11-14T10:04:24.714Z,737.75
2016-11-14T10:05:24.701Z,737.75
2016-11-14T10:06:24.683Z,737.73
2016-11-14T10:07:24.678Z,737.77
2016-11-14T10:08:24.659Z,737.75
2016-11-14T10:09:24.647Z,737.74
2016-11-14T10:10:24.638Z,737.8
2016-11-14T10:11:24.630Z,737.82
2016-11-14T10:12:24.611Z,737.8
2016-11-14T10:13:24.598Z,737.79
2016-11-14T10:14:24.594Z,737.79
2016-11-14T10:15:24.575Z,737.84
2016-11-14T10:16:24.570Z,737.82
2016-11-14T10:17:24.551Z,737.8
2016-11-14T10:18:24.540Z,737.8
2016-11-14T10:19:24.529Z,737.84
2016-11-14T10:20:24.523Z,737.8
2016-11-14T10:21:24.505Z,737.8
2016-11-14T10:22:24.495Z,737.83
2016-11-14T10:23:24.489Z,737.82
2016-11-14T10:24:24.477Z,737.82
2016-11-14T10:25:24.460Z,737.8
2016-11-14T10:26:24.449Z,737.81
2016-11-14T10:27:24.442Z,737.77
2016-11-14T10:28:24.424Z,737.79
2016-11-14T10:29:24.413Z,737.78
2016-11-14T10:30:24.408Z,737.84
2016-11-14T10:31:24.388Z,737.81
2016-11-14T10:32:24.384Z,737.81
2016-11-14T10:33:24.365Z,737.83
2016-11-14T10:34:24.353Z,737.81
2016-11-14T10:35:24.348Z,737.8
2016-11-14T10:36:24.329Z,737.77
2016-11-14T10:37:24.325Z,737.78
2016-11-14T10:38:24.313Z,737.72
2016-11-14T10:39:24.297Z,737.7
2016-11-14T10:40:24.290Z,737.73
2016-11-14T10:41:24.278Z,737.7
2016-11-14T10:42:24.258Z,737.75
2016-11-14T10:43:24.248Z,737.76
2016-11-14T10:44:24.242Z,737.78
2016-11-14T10:45:24.230Z,737.77
2016-11-14T10:46:24.218Z,737.74
2016-11-14T10:47:24.199Z,737.75
2016-11-14T10:48:24.194Z,737.77
2016-11-14T10:49:24.181Z,737.73
2016-11-14T10:50:24.171Z,737.71
2016-11-14T10:51:24.158Z,737.72
2016-11-14T10:52:24.146Z,737.78
2016-11-14T10:53:24.134Z,737.77
2016-11-14T10:54:24.114Z,737.72
2016-11-14T10:55:24.112Z,737.75
2016-11-14T10:56:24.091Z,737.75
2016-11-14T10:57:24.080Z,737.74
2016-11-14T10:58:24.068Z,737.72
2016-11-14T10:59:24.065Z,737.78
2016-11-14T11:00:24.044Z,737.71
2016-11-14T11:01:24.034Z,737.7
2016-11-14T11:02:24.022Z,737.71
2016-11-14T11:03:24.012Z,737.68
2016-11-14T11:04:24.006Z,737.7
2016-11-14T11:05:23.987Z,737.71
2016-11-14T11:06:23.984Z,737.75
2016-11-14T11:07:23.964Z,737.74
2016-11-14T11:08:23.960Z,737.73
2016-11-14T11:09:23.943Z,737.75
2016-11-14T11:10:23.932Z,737.76
2016-11-14T11:11:23.927Z,737.78
2016-11-14T11:12:23.916Z,737.78
2016-11-14T11:13:23.898Z,737.73
2016-11-14T11:14:23.895Z,737.76
2016-11-14T11:15:23.884Z,737.76
2016-11-14T11:16:23.868Z,737.75
2016-11-14T11:17:23.860Z,737.72
2016-11-14T11:18:23.845Z,737.69
2016-11-14T11:19:23.842Z,737.73
2016-11-14T11:20:23.825Z,737.74
2016-11-14T11:21:23.822Z,737.72
2016-11-14T11:22:23.811Z,737.72
2016-11-14T11:23:23.794Z,737.72
2016-11-14T11:24:23.784Z,737.71
2016-11-14T11:25:23.781Z,737.72
2016-11-14T11:26:23.770Z,737.63
2016-11-14T11:27:23.751Z,737.62
2016-11-14T11:28:23.741Z,737.62
2016-11-14T11:29:23.730Z,737.62
2016-11-14T11:30:23.727Z,737.61
2016-11-14T11:31:23.718Z,737.66
2016-11-14T11:32:23.699Z,737.64
2016-11-14T11:33:23.687Z,737.59
2016-11-14T11:34:23.678Z,737.6
2016-11-14T11:35:23.667Z,737.67
2016-11-14T11:36:23.664Z,737.62
2016-11-14T11:37:23.645Z,737.6
2016-11-14T11:38:23.642Z,737.6
2016-11-14T11:39:23.624Z,737.61
2016-11-14T11:40:23.620Z,737.62
2016-11-14T11:41:23.609Z,737.56
2016-11-14T11:42:23.591Z,737.58
2016-11-14T11:43:23.588Z,737.57
2016-11-14T11:44:23.569Z,737.58
2016-11-14T11:45:23.566Z,737.59
2016-11-14T11:46:23.548Z,737.55
2016-11-14T11:47:23.545Z,737.57
2016-11-14T11:48:23.527Z,737.61
2016-11-14T11:49:23.522Z,737.57
2016-11-14T11:50:23.506Z,737.54
2016-11-14T11:51:23.494Z,737.58
2016-11-14T11:52:23.483Z,737.59
2016-11-14T11:53:23.478Z,737.57
2016-11-14T11:54:23.460Z,737.56
2016-11-14T11:55:23.448Z,737.57
2016-11-14T11:56:23.436Z,737.59
2016-11-14T11:57:23.432Z,737.59
2016-11-14T11:58:23.421Z,737.59
2016-11-14T11:59:23.403Z,737.53
2016-11-14T12:00:23.391Z,737.55
2016-11-14T12:01:23.387Z,737.6
2016-11-14T12:02:23.403Z,737.58
2016-11-14T12:03:23.364Z,737.58
2016-11-14T12:04:23.353Z,737.55
2016-11-14T12:05:23.336Z,737.57
2016-11-14T12:06:23.323Z,737.54
2016-11-14T12:07:23.320Z,737.55
2016-11-14T12:08:23.303Z,737.52
2016-11-14T12:09:23.299Z,737.49
2016-11-14T12:10:23.280Z,737.55
2016-11-14T12:11:23.270Z,737.58
2016-11-14T12:12:23.267Z,737.55
2016-11-14T12:13:23.255Z,737.55
2016-11-14T12:14:23.245Z,737.57
2016-11-14T12:15:23.235Z,737.59
2016-11-14T12:16:23.224Z,737.59
2016-11-14T12:17:23.207Z,737.61
2016-11-14T12:18:23.203Z,737.6
2016-11-14T12:19:23.185Z,737.61
2016-11-14T12:20:23.182Z,737.62
2016-11-14T12:21:23.171Z,737.61
2016-11-14T12:22:23.154Z,737.64
2016-11-14T12:23:23.144Z,737.64
2016-11-14T12:24:23.140Z,737.58
2016-11-14T12:25:23.123Z,737.6
2016-11-14T12:26:23.119Z,737.65
2016-11-14T12:27:23.109Z,737.66
2016-11-14T12:28:23.103Z,737.64
2016-11-14T12:29:23.087Z,737.65
2016-11-14T12:30:23.077Z,737.66
2016-11-14T12:31:23.058Z,737.63
2016-11-14T12:32:23.056Z,737.64